Time;durP1;ratioP1;P1;durP2;ratioP2;P2;SDS_P1;SDS_P2;PMS_P1;PMS_P2;Temp;Humidity;BMP_temperature;BMP_pressure;BME280_temperature;BME280_humidity;BME280_pressure;Samples;Min_cycle;Max_cycle;Signal;HPM_P1;HPM_P2
2024/01/31 00:00:09;;;;;;;113.07;57.63;;;2.80;71.90;;;;;;4958623;28;20050;-64
2024/01/31 00:02:36;;;;;;;112.43;57.20;;;2.70;72.00;;;;;;4959450;28;20460;-66
2024/01/31 00:05:03;;;;;;;112.45;57.55;;;2.70;72.00;;;;;;4960123;28;20027;-67
2024/01/31 00:07:29;;;;;;;110.45;56.92;;;2.70;72.30;;;;;;4958521;29;20399;-66
2024/01/31 00:09:55;;;;;;;123.78;60.38;;;2.70;72.20;;;;;;4959681;28;20115;-64
2024/01/31 00:12:20;;;;;;;113.53;59.00;;;2.60;72.20;;;;;;4959408;28;20098;-65
2024/01/31 00:14:46;;;;;;;118.13;57.22;;;2.60;72.30;;;;;;4959612;28;20023;-66
2024/01/31 00:17:12;;;;;;;113.25;55.85;;;2.60;72.10;;;;;;4959326;28;20028;-63
2024/01/31 00:19:38;;;;;;;117.15;56.05;;;2.60;72.00;;;;;;4959192;28;20019;-66
2024/01/31 00:22:04;;;;;;;120.28;58.70;;;2.60;72.30;;;;;;4959237;29;20023;-66
2024/01/31 00:24:30;;;;;;;119.25;59.00;;;2.60;72.40;;;;;;4959033;28;20390;-65
2024/01/31 00:26:56;;;;;;;117.22;59.33;;;2.60;72.20;;;;;;4959646;28;20027;-65
2024/01/31 00:29:22;;;;;;;115.22;58.00;;;2.60;72.50;;;;;;4959049;28;20062;-65
2024/01/31 00:31:48;;;;;;;107.68;54.88;;;2.60;72.10;;;;;;4959039;28;20069;-66
2024/01/31 00:34:15;;;;;;;115.43;58.50;;;2.60;72.20;;;;;;4959275;28;20027;-65
2024/01/31 00:36:41;;;;;;;115.70;58.97;;;2.50;72.10;;;;;;4958901;28;20154;-65
2024/01/31 00:39:07;;;;;;;113.75;57.28;;;2.50;72.40;;;;;;4958821;28;20114;-67
2024/01/31 00:41:33;;;;;;;114.95;58.58;;;2.50;72.30;;;;;;4957886;29;20038;-63
2024/01/31 00:43:59;;;;;;;122.18;60.70;;;2.50;72.10;;;;;;4958769;28;20035;-66
2024/01/31 00:46:24;;;;;;;113.38;55.40;;;2.50;72.30;;;;;;4958889;28;20020;-67
2024/01/31 00:48:50;;;;;;;115.70;57.55;;;2.50;72.10;;;;;;4958471;28;20054;-67
2024/01/31 00:51:16;;;;;;;101.93;52.80;;;2.50;72.30;;;;;;4959012;28;20042;-68
2024/01/31 00:53:43;;;;;;;114.90;57.58;;;2.40;72.20;;;;;;4959157;28;20031;-65
2024/01/31 00:56:09;;;;;;;123.28;61.25;;;2.40;72.40;;;;;;4958576;28;20038;-65
2024/01/31 00:58:35;;;;;;;115.18;59.58;;;2.40;72.40;;;;;;4958441;28;20058;-66
2024/01/31 01:01:01;;;;;;;118.85;59.10;;;2.40;72.50;;;;;;4957524;29;20058;-64
2024/01/31 01:03:27;;;;;;;105.28;53.58;;;2.40;72.60;;;;;;4958877;28;20058;-65
2024/01/31 01:05:53;;;;;;;108.82;53.20;;;2.40;72.70;;;;;;4958702;28;20031;-66
2024/01/31 01:08:19;;;;;;;100.57;54.83;;;2.40;73.00;;;;;;4958303;28;20497;-66
2024/01/31 01:10:45;;;;;;;102.95;54.33;;;2.40;73.10;;;;;;4958347;28;20055;-67
2024/01/31 01:13:11;;;;;;;108.80;54.55;;;2.40;73.10;;;;;;4958276;28;20023;-65
2024/01/31 01:15:37;;;;;;;100.20;52.58;;;2.40;73.00;;;;;;4958241;28;20496;-66
2024/01/31 01:18:03;;;;;;;95.57;50.88;;;2.40;72.90;;;;;;4958686;28;20027;-63
2024/01/31 01:20:29;;;;;;;99.57;49.53;;;2.40;72.80;;;;;;4958067;28;20023;-66
2024/01/31 01:22:55;;;;;;;111.63;55.95;;;2.40;72.80;;;;;;4958558;28;20425;-66
2024/01/31 01:25:21;;;;;;;98.05;48.92;;;2.40;73.00;;;;;;4958088;28;20393;-65
2024/01/31 01:27:53;;;;;;;93.75;47.90;;;2.40;72.70;;;;;;4958051;28;20441;-66
2024/01/31 01:30:20;;;;;;;91.40;47.10;;;2.40;72.90;;;;;;4958451;28;20054;-63
2024/01/31 01:32:46;;;;;;;96.28;46.60;;;2.30;73.00;;;;;;4957890;28;20053;-63
2024/01/31 01:35:13;;;;;;;93.47;46.38;;;2.40;72.80;;;;;;4958454;28;20023;-64
2024/01/31 01:37:40;;;;;;;91.32;45.60;;;2.40;72.70;;;;;;4957817;28;20039;-64
2024/01/31 01:40:07;;;;;;;83.47;41.65;;;2.40;72.60;;;;;;4956785;28;20031;-65
2024/01/31 01:42:38;;;;;;;80.75;40.35;;;2.40;72.50;;;;;;4957740;28;20125;-64
2024/01/31 01:45:04;;;;;;;75.20;39.38;;;2.40;72.70;;;;;;4957751;28;20034;-64
2024/01/31 01:47:30;;;;;;;80.55;40.72;;;2.40;73.00;;;;;;4958246;28;20027;-67
2024/01/31 01:49:57;;;;;;;78.93;41.00;;;2.40;73.00;;;;;;4957418;28;20051;-64
2024/01/31 01:52:25;;;;;;;82.30;41.20;;;2.40;73.30;;;;;;4956746;29;20023;-67
2024/01/31 01:54:51;;;;;;;79.88;40.88;;;2.40;73.10;;;;;;4957596;28;20082;-68
2024/01/31 01:57:17;;;;;;;73.90;39.03;;;2.30;73.00;;;;;;4957795;28;20031;-63
2024/01/31 01:59:44;;;;;;;80.18;38.95;;;2.30;73.10;;;;;;4957562;28;20090;-66
2024/01/31 02:02:10;;;;;;;81.20;39.17;;;2.40;73.10;;;;;;4957734;28;20035;-67
2024/01/31 02:04:36;;;;;;;69.32;36.70;;;2.40;73.00;;;;;;4957336;28;20031;-65
2024/01/31 02:07:03;;;;;;;76.80;39.22;;;2.40;73.10;;;;;;4957670;28;20030;-63
2024/01/31 02:09:30;;;;;;;67.78;35.45;;;2.40;73.00;;;;;;4957330;28;20015;-63
2024/01/31 02:11:56;;;;;;;76.18;36.95;;;2.40;73.00;;;;;;4957343;28;20136;-66
2024/01/31 02:14:21;;;;;;;75.68;36.22;;;2.30;73.10;;;;;;4957860;28;20357;-64
2024/01/31 02:16:48;;;;;;;77.47;36.97;;;2.30;73.30;;;;;;4957566;28;20023;-67
2024/01/31 02:19:13;;;;;;;73.75;36.13;;;2.30;73.20;;;;;;4956732;28;20027;-65
2024/01/31 02:21:45;;;;;;;70.20;35.47;;;2.40;73.20;;;;;;4957476;28;20042;-65
2024/01/31 02:24:11;;;;;;;75.68;35.72;;;2.40;73.00;;;;;;4957686;28;20038;-64
2024/01/31 02:26:37;;;;;;;66.03;32.30;;;2.40;72.90;;;;;;4957474;28;20027;-63
2024/01/31 02:29:03;;;;;;;65.15;35.08;;;2.40;73.10;;;;;;4957128;28;20027;-63
2024/01/31 02:31:29;;;;;;;69.82;34.80;;;2.40;73.30;;;;;;4957614;28;20023;-66
2024/01/31 02:33:55;;;;;;;68.97;34.45;;;2.40;73.20;;;;;;4957114;28;20054;-68
2024/01/31 02:36:21;;;;;;;72.53;34.30;;;2.40;73.20;;;;;;4957534;28;20078;-67
2024/01/31 02:38:47;;;;;;;72.40;35.00;;;2.40;73.10;;;;;;4957368;28;20019;-63
2024/01/31 02:41:13;;;;;;;70.07;36.83;;;2.40;73.20;;;;;;4957039;28;20031;-64
2024/01/31 02:43:38;;;;;;;77.00;35.15;;;2.40;73.10;;;;;;4957501;28;20115;-65
2024/01/31 02:46:05;;;;;;;64.65;34.22;;;2.40;72.90;;;;;;4956997;28;20362;-65
2024/01/31 02:48:30;;;;;;;71.45;35.83;;;2.40;72.90;;;;;;4957185;28;20023;-63
2024/01/31 02:50:56;;;;;;;79.07;38.40;;;2.40;73.00;;;;;;4957255;28;20464;-68
2024/01/31 02:53:22;;;;;;;77.93;36.67;;;2.40;73.10;;;;;;4956946;28;20038;-65
2024/01/31 02:55:48;;;;;;;72.65;35.72;;;2.40;73.00;;;;;;4957132;28;20106;-66
2024/01/31 02:58:14;;;;;;;72.82;35.55;;;2.40;73.30;;;;;;4956832;28;20307;-64
2024/01/31 03:00:40;;;;;;;72.80;35.90;;;2.40;73.00;;;;;;4956894;28;20036;-66
2024/01/31 03:03:06;;;;;;;68.85;35.33;;;2.40;72.70;;;;;;4956750;28;20027;-67
2024/01/31 03:05:32;;;;;;;65.63;32.00;;;2.40;72.70;;;;;;4956849;28;20054;-63
2024/01/31 03:07:58;;;;;;;72.20;34.95;;;2.40;72.60;;;;;;4957239;28;20027;-66
2024/01/31 03:10:24;;;;;;;65.93;32.08;;;2.40;72.60;;;;;;4957261;28;20031;-64
2024/01/31 03:12:49;;;;;;;77.20;36.15;;;2.40;72.80;;;;;;4956758;28;20032;-65
2024/01/31 03:15:15;;;;;;;65.47;32.97;;;2.40;72.80;;;;;;4956725;28;20027;-65
2024/01/31 03:17:41;;;;;;;68.50;35.90;;;2.40;72.60;;;;;;4956716;28;20513;-63
2024/01/31 03:20:09;;;;;;;67.00;33.55;;;2.40;72.70;;;;;;4956621;28;20062;-65
2024/01/31 03:22:35;;;;;;;70.97;35.20;;;2.40;72.80;;;;;;4956836;28;20027;-66
2024/01/31 03:25:01;;;;;;;67.28;34.70;;;2.30;72.80;;;;;;4956701;28;20032;-64
2024/01/31 03:27:27;;;;;;;68.85;32.45;;;2.30;72.80;;;;;;4956924;28;20102;-64
2024/01/31 03:29:53;;;;;;;74.05;35.75;;;2.30;72.90;;;;;;4955702;28;20063;-64
2024/01/31 03:32:19;;;;;;;66.53;34.10;;;2.20;72.90;;;;;;4959484;28;20023;-65
2024/01/31 03:34:45;;;;;;;66.22;32.88;;;2.30;73.10;;;;;;4960353;28;20025;-67
2024/01/31 03:37:11;;;;;;;72.55;33.22;;;2.20;73.00;;;;;;4960115;28;20039;-64
2024/01/31 03:39:38;;;;;;;62.40;30.55;;;2.20;73.00;;;;;;4960000;28;20043;-67
2024/01/31 03:42:04;;;;;;;63.05;31.63;;;2.30;73.10;;;;;;4959977;28;20035;-64
2024/01/31 03:44:33;;;;;;;68.93;33.08;;;2.30;73.10;;;;;;4959871;28;20031;-66
2024/01/31 03:46:58;;;;;;;64.35;32.47;;;2.30;73.10;;;;;;4959831;28;20027;-65
2024/01/31 03:49:25;;;;;;;69.97;33.80;;;2.30;72.90;;;;;;4959612;28;20484;-65
2024/01/31 03:51:50;;;;;;;60.80;31.48;;;2.20;73.00;;;;;;4960307;28;20346;-62
2024/01/31 03:54:16;;;;;;;66.78;33.65;;;2.30;73.00;;;;;;4959736;28;20046;-67
2024/01/31 03:56:43;;;;;;;68.50;34.28;;;2.30;73.10;;;;;;4959738;28;20019;-64
2024/01/31 03:59:09;;;;;;;65.97;32.45;;;2.30;73.10;;;;;;4959657;28;20078;-64
2024/01/31 04:01:35;;;;;;;69.60;31.98;;;2.30;73.20;;;;;;4959910;28;20023;-64
2024/01/31 04:04:00;;;;;;;64.95;33.30;;;2.30;73.00;;;;;;4959527;29;20035;-66
2024/01/31 04:06:26;;;;;;;60.60;31.75;;;2.30;73.10;;;;;;4959550;28;20023;-66
2024/01/31 04:08:52;;;;;;;67.18;32.92;;;2.30;72.80;;;;;;4959433;28;20025;-65
2024/01/31 04:11:18;;;;;;;60.10;31.67;;;2.30;72.90;;;;;;4959479;28;20019;-67
2024/01/31 04:13:44;;;;;;;64.65;31.63;;;2.30;72.90;;;;;;4959910;28;20031;-67
2024/01/31 04:16:15;;;;;;;63.40;31.83;;;2.30;73.00;;;;;;4959290;28;20090;-64
2024/01/31 04:18:41;;;;;;;63.15;31.02;;;2.30;73.00;;;;;;4959508;28;20058;-65
2024/01/31 04:21:07;;;;;;;61.00;30.67;;;2.30;72.70;;;;;;4959297;28;20457;-63
2024/01/31 04:23:33;;;;;;;57.47;27.50;;;2.30;72.90;;;;;;4959435;28;20028;-64
2024/01/31 04:26:01;;;;;;;61.92;31.38;;;2.30;72.80;;;;;;4958235;29;20091;-67
2024/01/31 04:28:27;;;;;;;61.38;29.77;;;2.30;72.70;;;;;;4959026;28;20027;-65
2024/01/31 04:30:53;;;;;;;61.08;30.80;;;2.30;72.60;;;;;;4959128;28;20030;-65
2024/01/31 04:33:20;;;;;;;55.97;28.70;;;2.30;72.40;;;;;;4959329;28;20030;-63
2024/01/31 04:35:46;;;;;;;67.95;32.30;;;2.20;72.70;;;;;;4958942;28;20058;-66
2024/01/31 04:38:11;;;;;;;64.22;31.83;;;2.20;72.50;;;;;;4959448;28;20066;-64
2024/01/31 04:40:37;;;;;;;66.05;33.50;;;2.10;72.60;;;;;;4959181;28;20027;-64
2024/01/31 04:43:04;;;;;;;66.57;30.67;;;2.10;72.70;;;;;;4957547;28;20059;-64
2024/01/31 04:45:30;;;;;;;60.10;29.75;;;2.00;72.80;;;;;;4959338;28;20115;-66
2024/01/31 04:47:55;;;;;;;61.42;31.42;;;2.10;72.60;;;;;;4959310;28;20055;-65
2024/01/31 04:50:21;;;;;;;65.22;31.83;;;2.10;72.70;;;;;;4958575;28;20051;-63
2024/01/31 04:52:47;;;;;;;58.22;30.10;;;2.10;72.70;;;;;;4958717;28;20323;-65
2024/01/31 04:55:14;;;;;;;58.55;30.10;;;2.10;72.40;;;;;;4958668;28;20035;-66
2024/01/31 04:57:40;;;;;;;55.63;28.02;;;2.00;72.50;;;;;;4958883;28;20049;-66
2024/01/31 05:00:12;;;;;;;62.45;31.02;;;2.00;72.30;;;;;;4958788;28;20357;-66
2024/01/31 05:02:38;;;;;;;65.97;30.73;;;2.00;72.30;;;;;;4958699;28;20027;-67
2024/01/31 05:05:04;;;;;;;65.10;31.98;;;1.90;72.20;;;;;;4958536;28;20027;-66
2024/01/31 05:07:30;;;;;;;60.85;29.88;;;1.90;72.20;;;;;;4959134;28;20024;-65
2024/01/31 05:09:56;;;;;;;64.20;31.70;;;1.90;72.60;;;;;;4958393;28;20019;-63
2024/01/31 05:12:22;;;;;;;61.50;32.35;;;1.90;72.40;;;;;;4958589;28;20023;-64
2024/01/31 05:14:48;;;;;;;63.50;31.75;;;1.90;72.50;;;;;;4958314;28;20034;-64
2024/01/31 05:17:16;;;;;;;58.25;30.77;;;1.80;72.30;;;;;;4958271;28;20024;-64
2024/01/31 05:19:42;;;;;;;67.78;33.75;;;1.90;72.40;;;;;;4958149;28;20034;-63
2024/01/31 05:22:08;;;;;;;61.55;31.02;;;1.80;72.40;;;;;;4958427;28;20400;-64
2024/01/31 05:24:34;;;;;;;67.47;32.10;;;1.80;72.30;;;;;;4958076;28;20023;-66
2024/01/31 05:27:03;;;;;;;65.28;31.83;;;1.80;72.50;;;;;;4958307;28;20058;-64
2024/01/31 05:29:32;;;;;;;67.43;32.85;;;1.80;72.40;;;;;;4957892;28;20078;-66
2024/01/31 05:31:58;;;;;;;58.60;30.95;;;1.80;72.30;;;;;;4958228;28;20352;-65
2024/01/31 05:34:24;;;;;;;60.45;30.27;;;1.80;72.40;;;;;;4957945;28;20023;-65
2024/01/31 05:36:51;;;;;;;61.10;31.25;;;1.80;72.50;;;;;;4957911;28;20035;-64
2024/01/31 05:39:17;;;;;;;63.25;32.13;;;1.80;72.50;;;;;;4958007;28;20043;-63
2024/01/31 05:41:44;;;;;;;65.30;34.42;;;1.80;72.40;;;;;;4957810;28;20073;-65
2024/01/31 05:44:10;;;;;;;66.97;32.65;;;1.80;72.10;;;;;;4957954;28;20027;-68
2024/01/31 05:46:36;;;;;;;67.07;35.28;;;1.70;71.90;;;;;;4957752;28;20441;-64
2024/01/31 05:49:02;;;;;;;65.93;33.40;;;1.70;72.00;;;;;;4957426;28;20039;-65
2024/01/31 05:51:29;;;;;;;61.70;30.95;;;1.70;72.00;;;;;;4958158;28;20038;-68
2024/01/31 05:53:55;;;;;;;65.10;31.98;;;1.60;72.00;;;;;;4957239;28;20357;-66
2024/01/31 05:56:22;;;;;;;63.53;32.00;;;1.60;72.10;;;;;;4958118;28;20449;-67
2024/01/31 05:58:48;;;;;;;69.90;31.33;;;1.50;72.40;;;;;;4957482;28;20031;-65
2024/01/31 06:01:14;;;;;;;55.47;29.73;;;1.50;72.30;;;;;;4957499;28;20031;-67
2024/01/31 06:03:40;;;;;;;60.80;33.78;;;1.50;72.50;;;;;;4957851;28;20106;-66
2024/01/31 06:06:06;;;;;;;67.18;31.90;;;1.40;72.70;;;;;;4957443;28;20060;-66
2024/01/31 06:08:34;;;;;;;62.40;32.88;;;1.50;72.50;;;;;;4957333;28;20019;-69
2024/01/31 06:11:04;;;;;;;66.70;34.08;;;1.50;72.50;;;;;;4957946;28;20041;-65
2024/01/31 06:13:31;;;;;;;52.72;29.40;;;1.50;72.60;;;;;;4957594;28;20074;-65
2024/01/31 06:15:56;;;;;;;60.67;30.33;;;1.40;72.50;;;;;;4957294;28;20109;-65
2024/01/31 06:18:23;;;;;;;58.65;30.45;;;1.40;72.70;;;;;;4957229;28;20119;-65
2024/01/31 06:20:50;;;;;;;63.17;29.50;;;1.40;72.60;;;;;;4957189;28;20026;-68
2024/01/31 06:23:16;;;;;;;58.97;30.48;;;1.40;72.60;;;;;;4957658;28;20338;-65
2024/01/31 06:25:42;;;;;;;61.80;31.00;;;1.40;72.50;;;;;;4957709;28;20019;-63
2024/01/31 06:28:08;;;;;;;67.53;32.42;;;1.40;72.50;;;;;;4957344;28;20031;-65
2024/01/31 06:30:43;;;;;;;59.38;30.55;;;1.40;72.40;;;;;;4957139;28;20019;-65
2024/01/31 06:33:10;;;;;;;61.45;32.35;;;1.40;72.50;;;;;;4957091;28;20118;-67
2024/01/31 06:35:38;;;;;;;68.22;32.65;;;1.40;72.40;;;;;;4957308;28;20062;-67
2024/01/31 06:38:04;;;;;;;64.55;32.45;;;1.40;72.30;;;;;;4956966;28;20079;-66
2024/01/31 06:40:30;;;;;;;66.82;33.25;;;1.40;72.30;;;;;;4956966;28;20055;-64
2024/01/31 06:42:57;;;;;;;59.47;31.50;;;1.40;72.30;;;;;;4955971;29;20031;-64
2024/01/31 06:45:26;;;;;;;71.18;32.85;;;1.40;72.20;;;;;;4957000;28;20078;-67
2024/01/31 06:47:53;;;;;;;61.88;30.63;;;1.40;72.30;;;;;;4956916;28;20094;-66
2024/01/31 06:50:21;;;;;;;61.78;29.55;;;1.40;72.20;;;;;;4955946;28;20039;-67
2024/01/31 06:52:47;;;;;;;65.57;29.23;;;1.40;72.00;;;;;;4957185;28;20110;-64
2024/01/31 06:55:13;;;;;;;64.38;30.02;;;1.40;72.30;;;;;;4956917;28;20453;-64
2024/01/31 06:57:40;;;;;;;81.80;38.33;;;1.40;72.50;;;;;;4955876;29;20055;-66
2024/01/31 07:00:11;;;;;;;67.90;31.35;;;1.40;72.50;;;;;;4956710;28;20071;-67
2024/01/31 07:02:38;;;;;;;59.20;31.05;;;1.40;72.40;;;;;;4956980;28;20114;-64
2024/01/31 07:05:05;;;;;;;60.50;27.45;;;1.40;72.60;;;;;;4956720;28;20365;-68
2024/01/31 07:07:32;;;;;;;56.05;27.77;;;1.40;72.50;;;;;;4961122;28;20372;-63
2024/01/31 07:09:58;;;;;;;58.63;29.45;;;1.40;72.80;;;;;;4960453;28;20527;-66
2024/01/31 07:12:24;;;;;;;51.63;26.58;;;1.40;72.50;;;;;;4960850;28;20102;-61
2024/01/31 07:14:50;;;;;;;56.33;28.52;;;1.40;72.80;;;;;;4959487;29;20114;-66
2024/01/31 07:17:16;;;;;;;60.30;29.17;;;1.50;73.00;;;;;;4960731;28;20028;-64
2024/01/31 07:19:42;;;;;;;54.38;27.75;;;1.50;73.00;;;;;;4960341;28;20078;-66
2024/01/31 07:22:09;;;;;;;57.90;29.05;;;1.60;73.10;;;;;;4959712;29;20110;-63
2024/01/31 07:24:35;;;;;;;61.55;30.00;;;1.60;73.30;;;;;;4960473;28;20027;-67
2024/01/31 07:27:02;;;;;;;66.95;30.17;;;1.70;73.40;;;;;;4960803;28;20098;-67
2024/01/31 07:29:28;;;;;;;64.32;32.50;;;1.80;73.50;;;;;;4960074;28;20032;-69
2024/01/31 07:31:54;;;;;;;61.78;33.33;;;1.90;73.50;;;;;;4960196;28;20070;-65
2024/01/31 07:34:20;;;;;;;69.95;36.13;;;2.00;73.60;;;;;;4960050;28;20051;-66
2024/01/31 07:36:46;;;;;;;69.80;34.85;;;2.30;73.60;;;;;;4960107;28;20066;-68
2024/01/31 07:39:14;;;;;;;67.40;34.85;;;2.40;73.50;;;;;;4960009;28;20154;-65
2024/01/31 07:41:40;;;;;;;67.07;34.05;;;2.60;73.40;;;;;;4959945;28;20061;-66
2024/01/31 07:44:06;;;;;;;87.85;39.92;;;2.80;73.60;;;;;;4959530;29;20161;-67
2024/01/31 07:46:32;;;;;;;83.22;39.38;;;2.90;73.30;;;;;;4959891;28;20494;-66
2024/01/31 07:48:58;;;;;;;81.57;37.80;;;3.10;73.20;;;;;;5231542;23;20109;-64
2024/01/31 07:51:24;;;;;;;85.82;41.70;;;3.20;72.90;;;;;;4980049;28;20094;-70
2024/01/31 07:53:50;;;;;;;97.53;46.00;;;3.30;72.70;;;;;;4978826;28;20404;-67
2024/01/31 07:56:16;;;;;;;76.68;37.67;;;3.50;72.60;;;;;;4978726;28;20027;-72
2024/01/31 07:58:42;;;;;;;76.45;35.58;;;3.60;72.70;;;;;;4978772;28;20073;-64
2024/01/31 08:01:08;;;;;;;72.10;35.13;;;3.80;73.00;;;;;;4979105;28;20097;-64
2024/01/31 08:03:39;;;;;;;83.55;38.58;;;3.90;72.60;;;;;;4979049;28;20065;-63
2024/01/31 08:06:08;;;;;;;101.18;53.05;;;4.10;72.50;;;;;;4979108;28;20023;-62
2024/01/31 08:08:36;;;;;;;75.78;37.22;;;4.20;72.50;;;;;;4979198;28;20101;-71
2024/01/31 08:11:05;;;;;;;74.03;36.45;;;4.40;72.60;;;;;;4978567;28;20038;-65
2024/01/31 08:13:32;;;;;;;65.78;33.60;;;4.50;72.10;;;;;;4978563;28;20066;-68
2024/01/31 08:15:59;;;;;;;74.78;37.50;;;4.70;72.30;;;;;;4978581;28;20427;-67
2024/01/31 08:18:25;;;;;;;72.65;34.83;;;4.80;72.20;;;;;;4978241;28;20031;-66
2024/01/31 08:20:50;;;;;;;66.88;34.40;;;4.90;71.70;;;;;;4979228;28;20441;-70
2024/01/31 08:23:17;;;;;;;88.10;46.63;;;4.90;71.60;;;;;;4979113;28;20042;-66
2024/01/31 08:25:43;;;;;;;92.38;45.25;;;5.10;71.50;;;;;;4978801;28;20019;-65
2024/01/31 08:28:09;;;;;;;74.53;38.50;;;5.20;71.80;;;;;;4978377;28;20030;-64
2024/01/31 08:30:35;;;;;;;77.90;38.38;;;5.40;71.30;;;;;;4978654;28;20015;-68
2024/01/31 08:33:02;;;;;;;70.47;34.95;;;5.50;71.10;;;;;;4978821;28;20147;-73
2024/01/31 08:35:28;;;;;;;62.42;32.72;;;5.60;70.90;;;;;;4961646;28;20037;-74
2024/01/31 08:37:55;;;;;;;68.45;36.25;;;5.80;70.40;;;;;;4978733;28;20027;-72
2024/01/31 08:40:21;;;;;;;64.68;33.15;;;5.90;70.50;;;;;;4978171;28;20109;-68
2024/01/31 08:42:47;;;;;;;66.22;35.05;;;6.00;70.10;;;;;;4978872;28;20054;-63
2024/01/31 08:45:13;;;;;;;68.63;36.42;;;6.20;69.80;;;;;;4978118;28;20026;-68
2024/01/31 08:47:40;;;;;;;64.72;34.80;;;6.30;69.60;;;;;;4978234;28;20105;-67
2024/01/31 08:50:09;;;;;;;61.63;32.75;;;6.40;69.30;;;;;;4977807;28;20555;-65
2024/01/31 08:52:35;;;;;;;68.45;36.13;;;6.40;69.40;;;;;;4977937;28;20019;-71
2024/01/31 08:55:01;;;;;;;63.55;31.35;;;6.60;69.30;;;;;;4977891;28;20082;-64
2024/01/31 08:57:28;;;;;;;55.95;29.35;;;6.80;68.70;;;;;;4977829;28;20138;-64
2024/01/31 08:59:54;;;;;;;56.60;30.70;;;6.90;68.90;;;;;;4977666;28;20019;-64
2024/01/31 09:02:20;;;;;;;61.88;31.83;;;6.90;68.70;;;;;;4977821;28;20046;-67
2024/01/31 09:04:46;;;;;;;53.72;28.92;;;7.10;68.10;;;;;;4977921;28;20078;-72
2024/01/31 09:07:12;;;;;;;53.15;28.73;;;7.20;68.10;;;;;;4977633;28;20023;-65
2024/01/31 09:09:39;;;;;;;53.95;28.70;;;7.30;67.70;;;;;;4977512;28;20066;-64
2024/01/31 09:12:06;;;;;;;55.75;30.25;;;7.50;67.70;;;;;;4977581;28;20033;-73
2024/01/31 09:14:35;;;;;;;64.07;34.50;;;7.60;66.80;;;;;;4977900;28;20121;-64
2024/01/31 09:17:07;;;;;;;61.42;32.17;;;7.70;66.30;;;;;;4974217;28;20147;-67
2024/01/31 09:19:35;;;;;;;49.90;28.83;;;7.80;65.70;;;;;;4977313;28;20023;-67
2024/01/31 09:22:05;;;;;;;48.30;28.23;;;7.90;65.50;;;;;;4977332;28;20031;-70
2024/01/31 09:24:31;;;;;;;47.55;27.48;;;7.90;64.10;;;;;;4977093;28;20031;-73
2024/01/31 09:26:57;;;;;;;50.03;29.05;;;8.00;64.60;;;;;;4977344;28;20038;-72
2024/01/31 09:29:25;;;;;;;54.97;31.27;;;8.10;64.60;;;;;;4975373;28;20062;-71
2024/01/31 09:31:52;;;;;;;49.97;29.00;;;8.20;64.40;;;;;;4976782;28;20445;-71
2024/01/31 09:34:18;;;;;;;49.90;28.90;;;8.20;64.40;;;;;;4975613;28;20034;-66
2024/01/31 09:36:45;;;;;;;51.03;27.85;;;8.30;63.80;;;;;;4976679;28;20356;-69
2024/01/31 09:39:11;;;;;;;49.20;27.70;;;8.40;63.60;;;;;;4975776;28;20129;-65
2024/01/31 09:41:38;;;;;;;46.90;26.77;;;8.40;63.60;;;;;;4976271;28;20041;-74
2024/01/31 09:44:04;;;;;;;49.40;27.77;;;8.50;63.40;;;;;;4976457;28;20037;-70
2024/01/31 09:46:32;;;;;;;52.88;27.20;;;8.60;63.30;;;;;;4975211;28;20105;-68
2024/01/31 09:51:27;;;;;;;51.70;28.02;;;8.70;63.10;;;;;;4974170;28;20051;-67
2024/01/31 09:54:00;;;;;;;50.97;28.38;;;8.80;63.20;;;;;;4977175;28;20333;-66
2024/01/31 09:56:31;;;;;;;51.78;29.30;;;8.90;63.30;;;;;;4977160;28;20117;-67
2024/01/31 09:58:58;;;;;;;51.63;29.17;;;8.90;63.40;;;;;;4976714;28;20110;-67
2024/01/31 10:01:26;;;;;;;51.33;27.38;;;9.00;63.40;;;;;;4976807;28;20022;-65
2024/01/31 10:03:57;;;;;;;52.42;30.55;;;9.10;63.00;;;;;;4976591;28;20042;-63
2024/01/31 10:06:24;;;;;;;51.42;29.40;;;9.20;61.60;;;;;;4977220;28;20035;-65
2024/01/31 10:08:50;;;;;;;52.45;29.58;;;9.30;62.40;;;;;;4976671;28;20389;-66
2024/01/31 10:11:16;;;;;;;45.22;28.08;;;9.40;62.40;;;;;;4976909;28;20105;-65
2024/01/31 10:13:42;;;;;;;41.67;24.17;;;9.40;61.70;;;;;;4976922;28;20491;-67
2024/01/31 10:16:08;;;;;;;41.72;24.35;;;9.50;61.90;;;;;;4977115;28;20059;-64
2024/01/31 10:18:34;;;;;;;45.38;25.23;;;9.60;61.90;;;;;;4976798;28;20077;-64
2024/01/31 10:21:01;;;;;;;43.22;25.30;;;9.70;60.30;;;;;;4976317;28;20105;-68
2024/01/31 10:23:27;;;;;;;44.10;24.35;;;9.70;61.00;;;;;;4975958;28;20058;-67
2024/01/31 10:25:53;;;;;;;42.45;23.92;;;9.80;61.60;;;;;;4975441;28;20054;-63
2024/01/31 10:28:20;;;;;;;41.67;24.83;;;9.90;61.00;;;;;;4976383;28;20038;-64
2024/01/31 10:30:47;;;;;;;38.38;23.00;;;10.00;60.50;;;;;;4976649;28;20098;-64
2024/01/31 10:33:14;;;;;;;40.00;23.27;;;10.00;59.40;;;;;;4976412;28;20027;-63
2024/01/31 10:35:45;;;;;;;42.00;23.65;;;10.10;60.30;;;;;;4976382;28;20111;-64
2024/01/31 10:38:13;;;;;;;44.72;25.42;;;10.20;60.30;;;;;;4976571;28;20035;-66
2024/01/31 10:40:42;;;;;;;53.20;26.55;;;10.30;59.50;;;;;;4978079;28;20334;-67
2024/01/31 10:43:09;;;;;;;42.90;23.38;;;10.40;59.50;;;;;;4980312;28;20353;-63
2024/01/31 10:45:35;;;;;;;42.70;23.67;;;10.40;60.00;;;;;;4980570;28;20018;-66
2024/01/31 10:48:02;;;;;;;36.00;21.98;;;10.60;59.70;;;;;;4980795;28;20034;-65
2024/01/31 10:50:30;;;;;;;40.80;24.27;;;10.60;60.10;;;;;;4980038;28;20058;-64
2024/01/31 10:52:58;;;;;;;36.38;21.55;;;10.80;58.60;;;;;;4980456;28;20114;-67
2024/01/31 10:55:25;;;;;;;39.33;22.38;;;10.80;58.90;;;;;;4980673;28;20027;-67
2024/01/31 10:57:51;;;;;;;34.85;21.33;;;10.90;58.90;;;;;;4980070;28;20035;-65
2024/01/31 11:00:32;;;;;;;41.88;22.45;;;11.00;58.90;;;;;;4980272;28;20030;-67
2024/01/31 11:03:00;;;;;;;39.67;22.83;;;11.10;59.10;;;;;;4980251;28;20027;-64
2024/01/31 11:05:31;;;;;;;44.25;24.67;;;11.20;58.60;;;;;;5259197;23;20051;-65
2024/01/31 11:07:58;;;;;;;37.80;21.95;;;11.20;58.70;;;;;;4980002;28;20027;-65
2024/01/31 11:10:27;;;;;;;39.75;21.58;;;11.40;58.40;;;;;;4979963;28;20022;-65
2024/01/31 11:13:01;;;;;;;34.38;21.75;;;11.40;57.70;;;;;;4979831;28;20101;-64
2024/01/31 11:15:35;;;;;;;39.30;20.88;;;11.50;57.90;;;;;;4979972;28;20463;-64
2024/01/31 11:18:14;;;;;;;35.03;20.50;;;11.50;57.50;;;;;;4978951;28;20389;-64
2024/01/31 11:20:50;;;;;;;35.80;20.90;;;11.70;58.10;;;;;;4980052;28;20077;-64
2024/01/31 11:23:19;;;;;;;33.63;20.00;;;11.70;57.20;;;;;;4980203;28;20019;-65
2024/01/31 11:25:46;;;;;;;33.85;20.38;;;11.70;57.10;;;;;;4979630;28;20415;-74
2024/01/31 11:28:13;;;;;;;39.05;22.98;;;11.90;57.30;;;;;;4978763;28;20058;-74
2024/01/31 11:30:39;;;;;;;38.38;21.70;;;12.00;55.70;;;;;;4979875;28;20047;-73
2024/01/31 11:33:06;;;;;;;37.05;21.73;;;12.00;55.70;;;;;;4979510;28;20081;-73
2024/01/31 11:35:35;;;;;;;42.63;24.00;;;12.00;55.50;;;;;;4979730;28;20026;-73
2024/01/31 11:38:01;;;;;;;42.28;23.27;;;12.10;55.60;;;;;;4979956;28;20030;-72
2024/01/31 11:40:27;;;;;;;41.38;23.77;;;12.10;55.20;;;;;;4979952;28;20033;-73
2024/01/31 11:42:54;;;;;;;39.78;22.65;;;12.10;55.00;;;;;;4978367;28;20325;-73
2024/01/31 11:45:25;;;;;;;41.75;23.65;;;12.20;55.00;;;;;;4979440;28;20027;-73
2024/01/31 11:47:56;;;;;;;37.92;20.73;;;12.30;55.90;;;;;;4980073;28;20027;-73
2024/01/31 11:50:24;;;;;;;37.97;22.00;;;12.30;55.50;;;;;;4979537;28;20019;-73
2024/01/31 11:52:51;;;;;;;38.05;21.13;;;12.40;54.60;;;;;;4978654;28;20018;-73
2024/01/31 11:55:21;;;;;;;41.15;21.25;;;12.40;54.90;;;;;;4979102;28;20075;-75
2024/01/31 11:57:47;;;;;;;35.00;19.73;;;12.40;54.70;;;;;;4979115;28;20168;-75
2024/01/31 12:00:15;;;;;;;33.28;18.40;;;12.50;54.60;;;;;;4979083;28;20087;-73
2024/01/31 12:02:42;;;;;;;30.35;17.20;;;12.60;54.90;;;;;;4978996;28;20054;-73
2024/01/31 12:05:08;;;;;;;32.85;17.55;;;12.60;54.50;;;;;;4978601;28;20085;-74
2024/01/31 12:07:34;;;;;;;34.08;18.67;;;12.70;53.40;;;;;;4979491;28;20060;-75
2024/01/31 12:10:00;;;;;;;30.63;16.38;;;12.70;52.30;;;;;;4978898;28;20031;-74
2024/01/31 12:12:29;;;;;;;29.90;16.33;;;12.60;52.80;;;;;;4977878;28;20050;-74
2024/01/31 12:14:55;;;;;;;28.23;16.13;;;12.70;53.20;;;;;;4979082;28;20038;-75
2024/01/31 12:17:26;;;;;;;34.00;17.92;;;12.70;52.80;;;;;;4978809;28;20357;-74
2024/01/31 12:20:08;;;;;;;33.40;18.25;;;12.80;52.90;;;;;;4979012;28;20046;-74
2024/01/31 12:22:36;;;;;;;35.92;17.75;;;12.80;53.40;;;;;;4977736;28;20031;-74
2024/01/31 12:25:02;;;;;;;37.13;18.60;;;12.90;53.20;;;;;;4978451;28;20030;-74
2024/01/31 12:27:28;;;;;;;33.22;17.98;;;12.90;52.10;;;;;;4977596;28;20058;-73
2024/01/31 12:29:54;;;;;;;32.63;17.80;;;12.90;52.30;;;;;;4979039;28;20444;-63
2024/01/31 12:32:20;;;;;;;34.85;18.88;;;12.90;52.40;;;;;;4978429;28;20031;-66